Time;durP1;ratioP1;P1;durP2;ratioP2;P2;SDS_P1;SDS_P2;PMS_P1;PMS_P2;Temp;Humidity;BMP_temperature;BMP_pressure;BME280_temperature;BME280_humidity;BME280_pressure;Samples;Min_cycle;Max_cycle;Signal;HPM_P1;HPM_P2
2022/05/28 00:00:29;;;;;;;3.00;2.03;;;18.70;75.60;;;;;;4150100;28;20480;-39
2022/05/28 00:02:31;;;;;;;3.10;2.00;;;18.70;75.70;;;;;;4146308;28;20424;-39
2022/05/28 00:04:34;;;;;;;2.75;1.83;;;18.70;75.70;;;;;;4158937;28;20064;-40
2022/05/28 00:06:36;;;;;;;3.65;1.70;;;18.70;75.70;;;;;;4151691;28;20567;-39
2022/05/28 00:08:39;;;;;;;2.83;1.97;;;18.70;75.70;;;;;;4151253;28;20642;-40
2022/05/28 00:10:42;;;;;;;2.85;2.03;;;18.70;75.70;;;;;;4151850;28;20704;-40
2022/05/28 00:12:44;;;;;;;;;;;18.70;75.70;;;;;;4157925;28;20052;-43
2022/05/28 00:14:46;;;;;;;2.55;1.85;;;18.70;75.60;;;;;;4151980;28;19924;-40
2022/05/28 00:16:49;;;;;;;3.03;1.67;;;18.70;75.60;;;;;;4148939;28;20052;-39
2022/05/28 00:18:54;;;;;;;2.67;1.73;;;18.80;75.60;;;;;;4157205;28;20071;-42
2022/05/28 00:20:56;;;;;;;3.03;1.70;;;18.80;75.50;;;;;;4153553;28;20044;-41
2022/05/28 00:22:59;;;;;;;1.88;1.52;;;18.80;75.50;;;;;;4149277;28;20350;-39
2022/05/28 00:25:01;;;;;;;2.45;1.52;;;18.80;75.50;;;;;;4153121;28;20052;-42
2022/05/28 00:27:03;;;;;;;3.38;1.40;;;18.80;75.60;;;;;;4156040;28;20634;-40
2022/05/28 00:29:06;;;;;;;2.65;1.60;;;18.80;75.70;;;;;;4139584;28;20063;-43
2022/05/28 00:31:08;;;;;;;1.75;1.40;;;18.80;75.60;;;;;;4140683;28;20082;-39
2022/05/28 00:33:10;;;;;;;2.03;1.53;;;18.80;75.70;;;;;;4150879;28;20474;-39
2022/05/28 00:35:15;;;;;;;2.58;1.48;;;18.80;75.90;;;;;;4148170;28;20071;-41
2022/05/28 00:37:17;;;;;;;2.78;1.70;;;18.80;75.80;;;;;;4144984;28;20048;-39
2022/05/28 00:39:20;;;;;;;1.80;1.48;;;18.80;75.90;;;;;;4149753;28;20595;-40
2022/05/28 00:41:22;;;;;;;5.40;1.60;;;18.80;76.00;;;;;;4152700;28;20810;-38
2022/05/28 00:43:25;;;;;;;1.85;1.35;;;18.80;76.10;;;;;;4147401;28;20059;-39
2022/05/28 00:45:28;;;;;;;1.83;1.38;;;18.80;76.00;;;;;;4148058;28;20048;-46
2022/05/28 00:47:31;;;;;;;2.47;1.55;;;18.90;76.20;;;;;;4155239;28;20051;-45
2022/05/28 00:49:34;;;;;;;2.33;1.58;;;18.90;76.20;;;;;;4148659;28;20045;-38
2022/05/28 00:51:42;;;;;;;1.93;1.63;;;18.90;76.20;;;;;;4147714;28;20368;-39
2022/05/28 00:53:45;;;;;;;1.88;1.38;;;18.90;76.30;;;;;;4145773;28;20715;-37
2022/05/28 00:55:47;;;;;;;3.33;1.35;;;18.90;76.40;;;;;;4154816;28;20475;-43
2022/05/28 00:57:50;;;;;;;1.67;1.30;;;18.90;76.40;;;;;;4163134;28;20052;-40
2022/05/28 00:59:54;;;;;;;2.47;1.50;;;19.00;76.50;;;;;;4146514;28;20438;-39
2022/05/28 01:02:05;;;;;;;2.58;1.27;;;19.00;76.40;;;;;;4147589;28;20533;-41
2022/05/28 01:04:16;;;;;;;2.55;1.40;;;19.00;76.40;;;;;;4149672;28;20048;-39
2022/05/28 01:06:46;;;;;;;2.40;1.20;;;19.00;76.40;;;;;;4153621;28;20137;-39
2022/05/28 01:09:00;;;;;;;1.52;1.10;;;19.00;76.40;;;;;;4146943;28;20389;-37
2022/05/28 01:11:05;;;;;;;;;;;19.00;76.30;;;;;;4150979;28;20064;-38
2022/05/28 01:13:26;;;;;;;1.80;1.20;;;19.00;76.30;;;;;;4146688;28;19989;-37
2022/05/28 01:15:35;;;;;;;2.90;1.40;;;19.00;76.20;;;;;;4153101;28;20583;-39
2022/05/28 01:18:35;;;;;;;3.92;1.30;;;19.10;76.20;;;;;;4151131;28;20733;-41
2022/05/28 01:20:48;;;;;;;4.60;1.40;;;19.10;76.00;;;;;;4104270;28;20056;-42
2022/05/28 01:23:03;;;;;;;2.78;1.40;;;19.10;75.80;;;;;;4150504;28;20203;-38
2022/05/28 01:25:11;;;;;;;4.18;1.63;;;19.20;76.00;;;;;;4146845;28;20371;-38
2022/05/28 01:27:29;;;;;;;4.20;1.40;;;19.20;76.00;;;;;;4152842;28;20085;-39
2022/05/28 01:29:38;;;;;;;4.10;1.40;;;19.20;75.90;;;;;;4145723;28;20088;-41
2022/05/28 01:31:42;;;;;;;6.22;1.40;;;19.20;76.10;;;;;;4148684;28;20638;-42
2022/05/28 01:33:45;;;;;;;4.15;1.75;;;19.20;76.20;;;;;;4154658;28;20052;-40
2022/05/28 01:35:49;;;;;;;1.92;1.02;;;19.20;76.20;;;;;;4148110;28;21598;-42
2022/05/28 01:37:52;;;;;;;2.53;1.65;;;19.20;76.20;;;;;;4147003;28;20741;-40
2022/05/28 01:39:57;;;;;;;2.40;1.10;;;19.20;76.30;;;;;;4147079;28;20395;-38
2022/05/28 01:41:59;;;;;;;1.05;0.77;;;19.20;76.30;;;;;;4152709;28;20716;-39
2022/05/28 01:44:03;;;;;;;5.25;1.70;;;19.20;76.30;;;;;;4150598;28;20063;-39
2022/05/28 01:46:09;;;;;;;8.30;1.38;;;19.20;76.20;;;;;;4147995;28;20120;-44
2022/05/28 01:48:13;;;;;;;3.00;1.52;;;19.30;75.60;;;;;;4151590;28;20056;-38
2022/05/28 01:50:15;;;;;;;;;;;19.30;75.70;;;;;;4155680;28;20532;-38
2022/05/28 01:52:19;;;;;;;2.67;1.35;;;19.30;75.30;;;;;;4145419;28;20022;-43
2022/05/28 01:54:27;;;;;;;3.80;1.70;;;19.30;75.00;;;;;;4148463;28;20166;-40
2022/05/28 01:56:29;;;;;;;3.00;1.30;;;19.30;74.70;;;;;;4148720;28;20092;-44
2022/05/28 01:58:32;;;;;;;5.10;1.43;;;19.30;74.60;;;;;;4147720;28;20650;-38
2022/05/28 02:00:34;;;;;;;2.70;1.50;;;19.30;74.50;;;;;;4154051;28;21065;-40
2022/05/28 02:02:37;;;;;;;3.58;1.63;;;19.30;74.30;;;;;;4138945;28;20328;-37
2022/05/28 02:04:42;;;;;;;2.15;1.60;;;19.30;74.20;;;;;;4144075;28;20367;-38
2022/05/28 02:06:44;;;;;;;2.33;1.35;;;19.30;74.10;;;;;;4142522;28;20057;-39
2022/05/28 02:08:49;;;;;;;2.70;1.48;;;19.30;74.00;;;;;;4136142;28;20701;-39
2022/05/28 02:11:11;;;;;;;2.85;1.58;;;19.30;74.00;;;;;;4137919;28;20059;-42
2022/05/28 02:13:48;;;;;;;1.58;1.35;;;19.30;74.00;;;;;;4140913;28;20574;-40
2022/05/28 02:15:55;;;;;;;3.10;1.80;;;19.30;73.90;;;;;;4139814;28;20051;-42
2022/05/28 02:18:00;;;;;;;1.92;1.30;;;19.30;73.80;;;;;;4140549;28;20402;-39
2022/05/28 02:20:19;;;;;;;2.03;1.50;;;19.30;73.80;;;;;;4148137;28;20091;-40
2022/05/28 02:22:44;;;;;;;3.97;1.88;;;19.30;73.80;;;;;;4142165;28;20048;-40
2022/05/28 02:24:51;;;;;;;2.85;2.00;;;19.30;73.70;;;;;;4138550;28;20493;-39
2022/05/28 02:26:59;;;;;;;2.05;1.67;;;19.30;73.60;;;;;;4141326;28;20155;-39
2022/05/28 02:29:02;;;;;;;2.25;1.80;;;19.40;73.60;;;;;;4140117;28;20596;-40
2022/05/28 02:31:25;;;;;;;2.50;1.95;;;19.30;73.40;;;;;;4148793;28;20130;-40
2022/05/28 02:33:28;;;;;;;2.05;1.60;;;19.40;73.30;;;;;;4141032;28;20043;-39
2022/05/28 02:35:30;;;;;;;2.83;2.03;;;19.40;73.20;;;;;;4146354;28;20063;-39
2022/05/28 02:37:32;;;;;;;2.67;1.83;;;19.40;73.10;;;;;;4147754;28;20311;-39
2022/05/28 02:39:34;;;;;;;1.83;1.48;;;19.40;73.00;;;;;;4138796;28;20536;-39
2022/05/28 02:41:37;;;;;;;2.38;1.60;;;19.40;72.80;;;;;;4156706;28;20143;-39
2022/05/28 02:43:40;;;;;;;2.38;2.00;;;19.50;72.70;;;;;;4148171;28;20315;-39
2022/05/28 02:45:42;;;;;;;2.42;1.83;;;19.40;72.30;;;;;;4140478;28;20060;-41
2022/05/28 02:47:46;;;;;;;2.75;1.60;;;19.40;72.20;;;;;;4139079;28;20064;-39
2022/05/28 02:49:48;;;;;;;1.77;1.38;;;19.50;72.20;;;;;;4147666;28;20080;-40
2022/05/28 02:51:50;;;;;;;2.45;1.55;;;19.50;72.10;;;;;;4139432;28;20355;-39
2022/05/28 02:53:54;;;;;;;2.13;1.50;;;19.50;71.90;;;;;;4141588;28;20059;-41
2022/05/28 02:55:56;;;;;;;1.75;1.40;;;19.50;71.80;;;;;;4141721;28;20534;-43
2022/05/28 02:57:58;;;;;;;1.80;1.45;;;19.50;71.70;;;;;;4147542;28;20059;-39
2022/05/28 03:00:01;;;;;;;1.40;1.20;;;19.60;71.70;;;;;;4142339;28;20157;-42
2022/05/28 03:02:03;;;;;;;2.08;1.40;;;19.50;71.60;;;;;;4140296;28;20296;-39
2022/05/28 03:04:08;;;;;;;3.07;1.33;;;19.60;71.70;;;;;;4149189;28;20261;-40
2022/05/28 03:06:10;;;;;;;1.30;1.20;;;19.50;71.50;;;;;;4147037;28;21102;-40
2022/05/28 03:08:12;;;;;;;2.10;1.20;;;19.50;71.60;;;;;;4141840;28;20618;-39
2022/05/28 03:10:14;;;;;;;2.08;1.35;;;19.50;71.60;;;;;;4144205;28;20744;-39
2022/05/28 03:12:17;;;;;;;1.60;1.27;;;19.50;71.50;;;;;;4148177;28;20487;-39
2022/05/28 03:14:19;;;;;;;1.88;1.63;;;19.50;71.60;;;;;;4141481;28;20565;-38
2022/05/28 03:16:21;;;;;;;1.75;1.10;;;19.50;71.50;;;;;;4140031;28;20593;-42
2022/05/28 03:18:23;;;;;;;1.05;0.70;;;19.50;71.50;;;;;;4146444;28;20751;-39
2022/05/28 03:20:25;;;;;;;1.23;1.10;;;19.50;71.50;;;;;;4139414;28;20356;-39
2022/05/28 03:22:28;;;;;;;1.75;1.10;;;19.50;71.50;;;;;;4140998;28;20877;-38
2022/05/28 03:24:30;;;;;;;1.67;1.10;;;19.50;71.30;;;;;;4147605;28;20084;-38
2022/05/28 03:26:33;;;;;;;1.80;0.98;;;19.50;71.30;;;;;;4146003;28;20518;-40
2022/05/28 03:28:35;;;;;;;0.75;0.75;;;19.50;71.30;;;;;;4139274;28;20116;-40
2022/05/28 03:30:37;;;;;;;1.02;0.90;;;19.50;71.30;;;;;;4143069;28;20538;-39
2022/05/28 03:32:39;;;;;;;1.67;1.10;;;19.60;71.30;;;;;;4149172;28;20051;-39
2022/05/28 03:34:42;;;;;;;1.58;0.93;;;19.60;71.10;;;;;;4140426;28;20429;-38
2022/05/28 03:36:44;;;;;;;1.48;1.02;;;19.70;71.10;;;;;;4140571;28;20063;-38
2022/05/28 03:38:46;;;;;;;1.15;0.80;;;19.70;71.20;;;;;;4148423;28;20175;-38
2022/05/28 03:40:48;;;;;;;1.02;0.80;;;19.70;71.00;;;;;;4156285;28;20317;-38
2022/05/28 03:42:50;;;;;;;3.00;1.17;;;19.70;71.00;;;;;;4138871;28;20631;-41
2022/05/28 03:44:52;;;;;;;1.50;0.93;;;19.80;70.90;;;;;;4147168;28;20048;-39
2022/05/28 03:46:54;;;;;;;1.55;1.05;;;19.80;71.00;;;;;;4144658;28;20053;-40
2022/05/28 03:49:00;;;;;;;1.67;1.02;;;19.80;70.90;;;;;;4140005;28;20053;-40
2022/05/28 03:51:02;;;;;;;1.17;0.80;;;19.80;70.80;;;;;;4140493;28;20067;-39
2022/05/28 03:53:05;;;;;;;2.42;1.00;;;19.80;70.70;;;;;;4154459;28;20060;-40
2022/05/28 03:55:07;;;;;;;1.67;1.00;;;19.80;70.60;;;;;;4130899;28;21499;-37
2022/05/28 03:57:14;;;;;;;1.10;0.90;;;19.80;70.60;;;;;;4140998;28;20309;-39
2022/05/28 03:59:16;;;;;;;2.08;0.70;;;19.80;70.60;;;;;;4145716;28;20376;-38
2022/05/28 04:01:19;;;;;;;2.30;1.02;;;19.80;70.70;;;;;;4152441;28;20168;-39
2022/05/28 04:03:21;;;;;;;1.05;0.90;;;19.80;70.60;;;;;;4145293;28;21417;-39
2022/05/28 04:05:23;;;;;;;1.10;0.88;;;19.90;70.60;;;;;;4146407;28;20207;-38
2022/05/28 04:07:26;;;;;;;1.00;0.80;;;19.90;70.50;;;;;;4150836;28;20056;-38
2022/05/28 04:09:28;;;;;;;0.90;0.63;;;19.90;70.40;;;;;;4147297;28;21996;-39
2022/05/28 04:11:30;;;;;;;0.80;0.70;;;19.90;70.40;;;;;;4145941;28;20488;-38
2022/05/28 04:13:33;;;;;;;1.35;0.52;;;19.90;70.40;;;;;;4151405;28;20355;-38
2022/05/28 04:15:35;;;;;;;1.13;0.70;;;19.90;70.30;;;;;;4156796;28;20060;-37
2022/05/28 04:17:37;;;;;;;0.70;0.70;;;19.90;70.30;;;;;;4148600;28;20062;-37
2022/05/28 04:19:40;;;;;;;1.80;0.70;;;19.90;70.30;;;;;;4148710;28;20102;-37
2022/05/28 04:21:42;;;;;;;0.50;0.50;;;19.90;70.90;;;;;;4156594;28;20292;-38
2022/05/28 04:23:44;;;;;;;2.95;0.73;;;19.90;70.20;;;;;;4149095;28;20561;-38
2022/05/28 04:25:46;;;;;;;1.23;0.60;;;19.90;70.20;;;;;;4149249;28;20155;-41
2022/05/28 04:27:49;;;;;;;1.65;0.65;;;19.90;70.20;;;;;;4151919;28;20056;-38
2022/05/28 04:29:51;;;;;;;1.23;0.50;;;20.00;70.10;;;;;;4151623;28;20049;-39
2022/05/28 04:31:53;;;;;;;0.88;0.60;;;20.00;69.80;;;;;;4140567;28;20652;-39
2022/05/28 04:33:55;;;;;;;2.00;0.60;;;20.10;69.80;;;;;;4143220;28;20690;-41
2022/05/28 04:35:57;;;;;;;0.57;0.43;;;20.10;69.70;;;;;;4166619;28;20572;-38
2022/05/28 04:37:59;;;;;;;1.80;0.57;;;20.10;69.60;;;;;;4140128;28;20129;-43
2022/05/28 04:40:02;;;;;;;2.83;0.60;;;20.20;69.50;;;;;;4141593;28;20086;-39
2022/05/28 04:42:04;;;;;;;1.37;0.77;;;20.30;69.60;;;;;;4148057;28;20554;-38
2022/05/28 04:44:07;;;;;;;2.07;0.60;;;20.30;69.30;;;;;;4143123;28;20545;-38
2022/05/28 04:46:09;;;;;;;2.47;0.60;;;20.30;69.30;;;;;;4139817;28;20501;-38
2022/05/28 04:48:12;;;;;;;1.65;0.65;;;20.30;69.30;;;;;;4146279;28;20443;-38
2022/05/28 04:50:14;;;;;;;1.13;0.40;;;20.40;69.60;;;;;;4147201;28;20894;-41
2022/05/28 04:52:16;;;;;;;0.98;0.52;;;20.50;69.20;;;;;;4139697;28;20075;-39
2022/05/28 04:54:18;;;;;;;0.40;0.40;;;20.60;69.10;;;;;;4141615;28;20135;-39
2022/05/28 04:56:21;;;;;;;1.23;0.60;;;20.60;69.00;;;;;;4147729;28;20510;-39
2022/05/28 04:58:23;;;;;;;0.73;0.60;;;20.60;68.80;;;;;;4138737;28;20504;-39
2022/05/28 05:00:27;;;;;;;0.75;0.63;;;20.70;68.70;;;;;;4142290;28;20076;-39
2022/05/28 05:02:29;;;;;;;1.35;0.40;;;20.80;68.70;;;;;;4149418;28;20055;-40
2022/05/28 05:04:31;;;;;;;1.35;0.50;;;20.80;68.50;;;;;;4146240;28;21213;-38
2022/05/28 05:06:33;;;;;;;0.47;0.47;;;20.80;68.30;;;;;;4148000;28;20059;-38
2022/05/28 05:08:35;;;;;;;0.60;0.50;;;20.90;68.30;;;;;;4152149;28;20127;-40
2022/05/28 05:10:38;;;;;;;0.50;0.50;;;20.90;68.20;;;;;;4157055;28;20500;-39
2022/05/28 05:12:40;;;;;;;0.40;0.40;;;20.80;68.20;;;;;;4150191;28;20851;-38
2022/05/28 05:14:42;;;;;;;0.38;0.38;;;20.80;68.30;;;;;;4150802;28;20343;-38
2022/05/28 05:16:44;;;;;;;0.43;0.43;;;20.90;68.30;;;;;;4157676;28;20055;-40
2022/05/28 05:18:46;;;;;;;0.77;0.50;;;20.90;68.00;;;;;;4150932;28;20067;-38
2022/05/28 05:20:49;;;;;;;2.10;0.60;;;20.80;67.90;;;;;;4150556;28;20083;-38
2022/05/28 05:22:55;;;;;;;1.63;0.40;;;20.80;68.10;;;;;;4157746;28;20139;-39
2022/05/28 05:24:58;;;;;;;0.63;0.60;;;20.80;68.40;;;;;;4156090;28;20102;-41
2022/05/28 05:27:04;;;;;;;0.40;0.40;;;20.80;68.30;;;;;;4149420;28;20629;-39
2022/05/28 05:29:06;;;;;;;0.50;0.50;;;20.70;68.20;;;;;;4151352;28;20048;-41
2022/05/28 05:31:08;;;;;;;0.50;0.50;;;20.70;68.40;;;;;;4156821;28;20064;-38
2022/05/28 05:33:10;;;;;;;1.58;0.50;;;20.70;68.50;;;;;;4147207;28;20064;-39
2022/05/28 05:35:13;;;;;;;0.32;0.32;;;20.70;68.40;;;;;;4138008;28;20101;-41
2022/05/28 05:37:15;;;;;;;0.40;0.40;;;20.70;68.40;;;;;;4142309;28;20061;-38
2022/05/28 05:39:17;;;;;;;0.37;0.37;;;20.60;68.40;;;;;;4149026;28;20055;-40
2022/05/28 05:41:20;;;;;;;0.50;0.50;;;20.70;68.50;;;;;;4141632;28;20045;-40
2022/05/28 05:43:22;;;;;;;1.52;0.43;;;20.60;68.50;;;;;;4141170;28;20052;-38
2022/05/28 05:45:24;;;;;;;0.52;0.52;;;20.70;68.60;;;;;;4148384;28;20656;-38
2022/05/28 05:47:26;;;;;;;1.00;0.50;;;20.60;68.60;;;;;;4140893;28;20658;-38
2022/05/28 05:49:28;;;;;;;0.50;0.50;;;20.60;68.60;;;;;;4139406;28;20540;-37
2022/05/28 05:51:30;;;;;;;0.82;0.50;;;20.60;68.70;;;;;;4147445;28;20049;-38
2022/05/28 05:53:33;;;;;;;0.40;0.40;;;20.60;68.80;;;;;;4144935;28;20149;-38
2022/05/28 05:55:35;;;;;;;0.47;0.47;;;20.60;68.80;;;;;;4139633;28;20056;-37
2022/05/28 05:57:37;;;;;;;0.50;0.47;;;20.50;68.70;;;;;;4142942;28;20287;-41
2022/05/28 05:59:39;;;;;;;0.52;0.40;;;20.50;68.80;;;;;;4164243;28;20537;-39
2022/05/28 06:01:42;;;;;;;0.47;0.47;;;20.50;68.80;;;;;;4139911;28;20741;-38
2022/05/28 06:03:44;;;;;;;0.65;0.50;;;20.50;68.80;;;;;;4141141;28;20052;-38
2022/05/28 06:05:46;;;;;;;0.43;0.43;;;20.50;68.80;;;;;;4151356;28;20137;-38
2022/05/28 06:07:49;;;;;;;0.43;0.43;;;20.50;68.90;;;;;;4141689;28;20637;-37
2022/05/28 06:09:51;;;;;;;0.52;0.50;;;20.50;68.80;;;;;;4142226;28;20135;-43
2022/05/28 06:11:53;;;;;;;0.45;0.43;;;20.50;68.90;;;;;;4148356;28;20056;-38
2022/05/28 06:13:55;;;;;;;0.50;0.50;;;20.50;69.50;;;;;;4143728;28;20710;-38
2022/05/28 06:15:57;;;;;;;0.40;0.40;;;20.50;68.90;;;;;;4142745;28;20317;-40
2022/05/28 06:17:59;;;;;;;0.73;0.50;;;20.50;68.90;;;;;;4142810;28;20062;-37
2022/05/28 06:20:07;;;;;;;0.68;0.50;;;20.50;68.90;;;;;;4150182;28;20175;-40
2022/05/28 06:22:09;;;;;;;1.10;0.40;;;20.50;68.90;;;;;;4143082;28;20353;-38
2022/05/28 06:24:11;;;;;;;0.40;0.40;;;20.50;69.50;;;;;;4140183;28;20255;-38
2022/05/28 06:26:14;;;;;;;1.02;0.60;;;20.50;68.80;;;;;;4145376;28;20663;-38
2022/05/28 06:28:16;;;;;;;0.40;0.40;;;20.60;68.60;;;;;;4148615;28;21026;-38
2022/05/28 06:30:18;;;;;;;0.50;0.50;;;20.70;68.40;;;;;;4140554;28;20312;-40
2022/05/28 06:32:21;;;;;;;1.42;0.40;;;20.60;68.20;;;;;;4142948;28;20388;-38
2022/05/28 06:34:23;;;;;;;0.85;0.55;;;20.70;68.20;;;;;;4147624;28;20088;-39
2022/05/28 06:36:25;;;;;;;0.47;0.47;;;20.80;68.00;;;;;;4140467;28;20862;-39
2022/05/28 06:38:27;;;;;;;0.50;0.50;;;20.70;67.90;;;;;;4140825;28;20104;-42
2022/05/28 06:40:31;;;;;;;0.30;0.30;;;20.70;67.90;;;;;;4148142;28;20113;-38
2022/05/28 06:42:34;;;;;;;0.40;0.40;;;20.70;68.10;;;;;;4144399;28;20884;-38
2022/05/28 06:44:36;;;;;;;0.90;0.47;;;20.60;68.20;;;;;;4141546;28;20171;-39
2022/05/28 06:46:38;;;;;;;0.32;0.32;;;20.60;68.20;;;;;;4139777;28;20062;-38
2022/05/28 06:48:40;;;;;;;0.50;0.50;;;20.50;68.30;;;;;;4147583;28;20150;-38
2022/05/28 06:51:02;;;;;;;0.80;0.45;;;20.50;68.30;;;;;;4140781;28;20118;-38
2022/05/28 06:53:08;;;;;;;0.85;0.70;;;20.50;68.40;;;;;;4148449;28;20056;-38
2022/05/28 06:55:10;;;;;;;0.70;0.30;;;20.50;68.50;;;;;;4123209;28;21074;-39
2022/05/28 06:57:12;;;;;;;2.67;0.50;;;20.50;68.50;;;;;;4128686;28;20052;-40
2022/05/28 06:59:14;;;;;;;0.40;0.40;;;20.40;68.50;;;;;;4142540;28;20425;-43
2022/05/28 07:01:17;;;;;;;1.08;0.77;;;20.40;68.60;;;;;;4145548;28;20511;-38
2022/05/28 07:03:22;;;;;;;0.75;0.57;;;20.40;68.60;;;;;;4140174;28;20117;-40
2022/05/28 07:05:28;;;;;;;1.25;0.40;;;20.40;68.60;;;;;;4140131;28;20048;-41
2022/05/28 07:07:30;;;;;;;1.13;0.50;;;20.40;68.70;;;;;;4148989;28;20133;-41
2022/05/28 07:09:33;;;;;;;0.57;0.40;;;20.40;68.80;;;;;;4146026;28;20664;-38
2022/05/28 07:11:35;;;;;;;0.40;0.40;;;20.30;68.60;;;;;;4140504;28;20052;-38
2022/05/28 07:13:38;;;;;;;0.70;0.40;;;20.30;68.70;;;;;;4143396;28;20044;-41
2022/05/28 07:15:40;;;;;;;0.55;0.32;;;20.30;68.60;;;;;;4147716;28;20421;-40
2022/05/28 07:17:42;;;;;;;0.40;0.40;;;20.30;68.70;;;;;;4140422;28;20144;-38
2022/05/28 07:19:45;;;;;;;0.68;0.40;;;20.30;68.70;;;;;;4140027;28;20572;-39
2022/05/28 07:21:48;;;;;;;0.70;0.50;;;20.30;68.70;;;;;;4148158;28;20312;-39
2022/05/28 07:23:50;;;;;;;0.43;0.40;;;20.30;68.70;;;;;;4142871;28;20218;-38
2022/05/28 07:26:02;;;;;;;0.57;0.57;;;20.20;68.60;;;;;;4138625;28;20402;-38
2022/05/28 07:28:24;;;;;;;0.35;0.35;;;20.20;68.60;;;;;;4159692;28;20043;-39
2022/05/28 07:30:27;;;;;;;0.85;0.50;;;20.20;68.60;;;;;;4150320;28;20187;-39
2022/05/28 07:32:32;;;;;;;1.47;0.60;;;20.20;68.60;;;;;;4147639;28;20048;-38
2022/05/28 07:34:34;;;;;;;0.43;0.43;;;20.20;68.60;;;;;;4148448;28;20427;-38
2022/05/28 07:36:36;;;;;;;0.50;0.40;;;20.20;68.60;;;;;;4156151;28;20044;-38
2022/05/28 07:38:39;;;;;;;0.55;0.40;;;20.20;68.60;;;;;;4146021;28;20052;-41
2022/05/28 07:40:41;;;;;;;0.80;0.50;;;20.20;68.60;;;;;;4148036;28;20517;-38
2022/05/28 07:42:43;;;;;;;0.45;0.40;;;20.20;68.70;;;;;;4154430;28;20045;-38
2022/05/28 07:44:45;;;;;;;0.63;0.60;;;20.10;68.60;;;;;;4138242;28;21430;-38
2022/05/28 07:46:48;;;;;;;0.57;0.52;;;20.20;68.70;;;;;;4139407;28;20060;-39
2022/05/28 07:48:51;;;;;;;0.30;0.30;;;20.20;68.80;;;;;;4147236;28;20083;-39
2022/05/28 07:50:53;;;;;;;0.50;0.50;;;20.10;68.70;;;;;;4148808;28;20059;-38
2022/05/28 07:52:57;;;;;;;0.77;0.43;;;20.20;68.80;;;;;;4144388;28;20060;-39
2022/05/28 07:54:59;;;;;;;0.40;0.40;;;20.10;68.70;;;;;;4141801;28;20594;-39
2022/05/28 07:57:01;;;;;;;0.47;0.47;;;20.10;68.70;;;;;;4150468;28;20052;-39
2022/05/28 07:59:04;;;;;;;0.77;0.60;;;20.10;68.70;;;;;;4143922;28;20701;-40
2022/05/28 08:01:07;;;;;;;0.43;0.43;;;20.10;68.70;;;;;;4141890;28;20053;-38
2022/05/28 08:03:10;;;;;;;0.80;0.60;;;20.10;68.70;;;;;;4147225;28;20658;-40
2022/05/28 08:05:13;;;;;;;1.30;0.80;;;20.10;68.80;;;;;;4164785;28;20469;-41
2022/05/28 08:07:15;;;;;;;1.63;0.70;;;20.10;68.80;;;;;;4143204;28;20048;-39
2022/05/28 08:09:17;;;;;;;0.73;0.68;;;20.10;68.80;;;;;;4141773;28;20056;-39
2022/05/28 08:11:21;;;;;;;0.52;0.50;;;20.10;68.80;;;;;;4150837;28;20052;-44
2022/05/28 08:13:24;;;;;;;0.82;0.60;;;20.10;68.80;;;;;;4145268;28;20059;-40
2022/05/28 08:15:26;;;;;;;0.98;0.82;;;20.10;68.90;;;;;;4141684;28;21393;-43
2022/05/28 08:17:30;;;;;;;1.38;0.60;;;20.10;68.90;;;;;;4143641;28;20522;-40
2022/05/28 08:19:33;;;;;;;0.57;0.43;;;20.10;69.00;;;;;;4149120;28;20596;-39
2022/05/28 08:23:58;;;;;;;0.98;0.60;;;20.10;69.00;;;;;;4150547;28;20052;-45
2022/05/28 08:26:01;;;;;;;0.68;0.60;;;20.00;68.90;;;;;;4143698;28;20350;-42
2022/05/28 08:28:04;;;;;;;0.73;0.52;;;20.10;69.00;;;;;;4142283;28;20406;-38
2022/05/28 08:30:11;;;;;;;0.80;0.70;;;20.00;69.00;;;;;;4150363;28;20051;-38
2022/05/28 08:32:16;;;;;;;0.68;0.68;;;20.00;69.00;;;;;;4150729;28;20059;-38
2022/05/28 08:34:18;;;;;;;0.73;0.50;;;20.00;69.00;;;;;;4140522;28;20414;-41
2022/05/28 08:36:20;;;;;;;0.65;0.50;;;20.00;69.10;;;;;;4159275;28;20694;-41
2022/05/28 08:38:25;;;;;;;1.02;0.80;;;20.00;69.10;;;;;;4148960;28;20048;-39
2022/05/28 08:40:27;;;;;;;0.52;0.50;;;20.00;69.10;;;;;;4149801;28;20063;-39
2022/05/28 08:42:30;;;;;;;0.63;0.63;;;20.00;69.10;;;;;;4145466;28;20659;-38
2022/05/28 08:44:33;;;;;;;;;;;20.00;69.10;;;;;;4145725;28;20332;-41
2022/05/28 08:46:37;;;;;;;1.13;0.93;;;20.00;69.10;;;;;;4155348;28;19928;-38
2022/05/28 08:48:43;;;;;;;;;;;20.00;69.10;;;;;;4149706;28;21832;-40
2022/05/28 08:51:19;;;;;;;1.20;0.90;;;20.00;69.10;;;;;;4147811;28;20392;-38
2022/05/28 08:53:28;;;;;;;0.68;0.63;;;19.90;69.00;;;;;;4141287;28;20056;-39
2022/05/28 08:55:36;;;;;;;1.40;0.90;;;19.90;69.00;;;;;;4151535;28;20076;-38
2022/05/28 08:57:59;;;;;;;1.02;0.80;;;19.90;69.00;;;;;;4155406;28;20158;-39
2022/05/28 09:00:09;;;;;;;0.77;0.60;;;19.90;69.10;;;;;;4150192;28;20055;-40
2022/05/28 09:02:21;;;;;;;1.30;0.85;;;19.90;69.70;;;;;;4149547;28;20055;-39
2022/05/28 09:04:35;;;;;;;0.82;0.80;;;19.90;69.20;;;;;;4146259;28;20328;-41
2022/05/28 09:06:43;;;;;;;1.08;0.73;;;19.90;69.60;;;;;;4136700;28;20098;-39
2022/05/28 09:08:49;;;;;;;0.80;0.80;;;19.90;69.20;;;;;;4147811;28;20074;-38
2022/05/28 09:10:54;;;;;;;1.50;1.00;;;19.90;69.20;;;;;;4153661;28;20064;-38
2022/05/28 09:13:15;;;;;;;0.82;0.68;;;19.90;69.20;;;;;;4155011;28;20113;-38
2022/05/28 09:15:17;;;;;;;1.15;1.02;;;19.90;69.20;;;;;;4153908;28;20092;-38
2022/05/28 09:17:36;;;;;;;0.90;0.70;;;19.80;69.20;;;;;;4153680;28;20071;-37
2022/05/28 09:19:42;;;;;;;1.23;0.73;;;19.90;69.30;;;;;;4155562;28;20084;-38
2022/05/28 09:21:45;;;;;;;1.42;1.02;;;19.90;69.30;;;;;;4150940;28;20765;-39
2022/05/28 09:24:03;;;;;;;1.10;0.93;;;19.80;69.20;;;;;;4146847;28;20512;-42
2022/05/28 09:26:07;;;;;;;0.82;0.82;;;19.80;69.20;;;;;;4150399;28;20446;-38
2022/05/28 09:28:09;;;;;;;1.27;0.90;;;19.80;69.20;;;;;;4147292;28;20094;-37
2022/05/28 09:30:38;;;;;;;0.73;0.73;;;19.80;69.20;;;;;;4150649;28;20044;-39
2022/05/28 09:33:24;;;;;;;0.63;0.60;;;19.80;69.30;;;;;;4157548;28;20350;-42
2022/05/28 09:35:38;;;;;;;0.95;0.73;;;19.80;69.30;;;;;;4132717;28;20795;-40
2022/05/28 09:38:17;;;;;;;1.27;0.75;;;19.80;69.30;;;;;;4147086;28;20830;-38
2022/05/28 09:40:47;;;;;;;1.40;0.90;;;19.70;69.30;;;;;;4143942;28;20048;-40
2022/05/28 09:43:04;;;;;;;0.85;0.80;;;19.80;69.40;;;;;;4147715;28;20093;-40
2022/05/28 09:45:29;;;;;;;0.98;0.95;;;19.80;69.30;;;;;;4143834;28;20052;-43
2022/05/28 09:47:51;;;;;;;2.03;1.17;;;19.80;69.40;;;;;;4142624;28;20053;-39
2022/05/28 09:49:55;;;;;;;1.40;0.80;;;19.80;69.60;;;;;;4153288;28;20631;-38
2022/05/28 09:51:59;;;;;;;1.30;0.88;;;19.70;69.50;;;;;;4142920;28;21121;-38
2022/05/28 09:54:17;;;;;;;1.10;0.80;;;19.70;69.40;;;;;;4145439;28;20072;-39
2022/05/28 09:56:36;;;;;;;0.70;0.68;;;19.70;69.60;;;;;;4144128;28;20541;-42
2022/05/28 09:58:40;;;;;;;0.88;0.80;;;19.70;69.50;;;;;;4149863;28;20588;-38
2022/05/28 10:00:45;;;;;;;0.85;0.80;;;19.70;69.50;;;;;;4145056;28;20056;-38
2022/05/28 10:05:22;;;;;;;1.10;0.90;;;19.70;69.40;;;;;;4151625;28;20052;-38
2022/05/28 10:07:36;;;;;;;2.10;1.20;;;19.70;69.50;;;;;;4146183;28;20737;-37
2022/05/28 10:09:50;;;;;;;1.17;1.08;;;19.70;69.60;;;;;;4148011;28;20067;-41
2022/05/28 10:11:53;;;;;;;;;;;19.70;70.20;;;;;;4151909;28;20044;-38
2022/05/28 10:13:57;;;;;;;2.17;1.40;;;19.70;69.60;;;;;;4141629;28;19925;-39
2022/05/28 10:16:01;;;;;;;1.05;0.90;;;19.60;69.50;;;;;;4144328;28;20067;-38
2022/05/28 10:18:09;;;;;;;1.20;1.10;;;19.60;69.50;;;;;;4150890;28;20060;-40
2022/05/28 10:20:18;;;;;;;2.30;1.25;;;19.60;69.60;;;;;;4151061;28;20057;-42
2022/05/28 10:22:21;;;;;;;2.10;1.45;;;19.70;69.50;;;;;;4151964;28;20048;-38
2022/05/28 10:24:26;;;;;;;1.50;1.10;;;19.60;69.50;;;;;;4145226;28;20165;-38
2022/05/28 10:26:45;;;;;;;2.30;1.58;;;19.60;69.50;;;;;;4144990;28;20055;-40
2022/05/28 10:28:53;;;;;;;1.33;1.17;;;19.60;69.40;;;;;;4143079;28;20052;-39
2022/05/28 10:30:55;;;;;;;2.15;1.38;;;19.60;69.30;;;;;;4145240;28;20080;-38
2022/05/28 10:33:01;;;;;;;1.55;1.30;;;19.60;69.40;;;;;;4146318;28;20409;-38
2022/05/28 10:35:06;;;;;;;2.60;1.52;;;19.60;69.60;;;;;;4151760;28;20052;-42
2022/05/28 10:37:15;;;;;;;2.17;1.45;;;19.60;69.90;;;;;;4148132;28;20056;-41
2022/05/28 10:39:19;;;;;;;2.22;1.58;;;19.60;69.40;;;;;;4145440;28;20522;-41
2022/05/28 10:41:29;;;;;;;3.00;1.92;;;19.50;69.20;;;;;;4144791;28;20052;-46
2022/05/28 10:43:40;;;;;;;2.20;1.63;;;19.50;69.40;;;;;;4144554;28;20135;-39
2022/05/28 10:45:48;;;;;;;1.70;1.40;;;19.50;69.30;;;;;;4144798;28;20595;-40
2022/05/28 10:48:10;;;;;;;2.25;1.45;;;19.50;69.60;;;;;;4147610;28;20379;-40
2022/05/28 10:50:24;;;;;;;3.20;1.95;;;19.50;69.60;;;;;;4144666;28;20086;-40
2022/05/28 10:52:35;;;;;;;3.50;1.95;;;19.50;69.50;;;;;;4144641;28;23164;-38
2022/05/28 10:54:44;;;;;;;2.67;1.90;;;19.50;69.40;;;;;;4143811;28;20055;-37
2022/05/28 10:56:53;;;;;;;3.38;2.30;;;19.50;69.50;;;;;;4143817;28;20551;-39
2022/05/28 10:59:03;;;;;;;2.10;1.67;;;19.50;69.50;;;;;;4143577;28;20548;-38